Time;durP1;ratioP1;P1;durP2;ratioP2;P2;SDS_P1;SDS_P2;PMS_P1;PMS_P2;Temp;Humidity;BMP_temperature;BMP_pressure;BME280_temperature;BME280_humidity;BME280_pressure;Samples;Min_cycle;Max_cycle;Signal;HPM_P1;HPM_P2
2023/07/15 00:01:25;;;;;;;25.57;5.73;;;28.80;48.40;;;;;;5049060;28;20849;-67
2023/07/15 00:03:53;;;;;;;33.77;6.07;;;28.80;48.40;;;;;;5032734;28;20196;-67
2023/07/15 00:06:21;;;;;;;18.33;4.70;;;28.90;48.50;;;;;;5032800;28;20208;-66
2023/07/15 00:08:49;;;;;;;65.43;8.97;;;28.90;48.50;;;;;;5046990;28;20196;-66
2023/07/15 00:11:22;;;;;;;41.50;6.93;;;28.90;48.50;;;;;;5043392;28;20699;-67
2023/07/15 00:13:49;;;;;;;29.43;5.80;;;28.80;48.40;;;;;;5046290;28;20204;-67
2023/07/15 00:16:17;;;;;;;22.33;5.13;;;28.90;48.50;;;;;;5040632;28;20761;-71
2023/07/15 00:18:45;;;;;;;33.33;5.90;;;28.80;48.40;;;;;;5036455;28;20195;-72
2023/07/15 00:21:18;;;;;;;28.90;5.83;;;28.90;48.50;;;;;;5048461;28;20208;-72
2023/07/15 00:23:46;;;;;;;44.57;7.07;;;28.80;48.40;;;;;;5047955;28;20238;-72
2023/07/15 00:26:13;;;;;;;26.67;5.67;;;28.80;48.50;;;;;;5034465;28;20196;-69
2023/07/15 00:28:39;;;;;;;49.17;7.80;;;28.80;48.40;;;;;;5034781;28;20204;-69
2023/07/15 00:31:13;;;;;;;30.70;6.10;;;28.80;48.50;;;;;;5044546;28;20243;-66
2023/07/15 00:33:42;;;;;;;30.83;5.90;;;28.80;48.50;;;;;;5047393;28;20730;-69
2023/07/15 00:36:10;;;;;;;37.97;6.50;;;28.80;48.40;;;;;;5046754;28;20425;-66
2023/07/15 00:38:37;;;;;;;28.60;5.73;;;28.80;48.40;;;;;;5062078;28;20204;-66
2023/07/15 00:41:06;;;;;;;40.43;6.50;;;28.80;48.50;;;;;;5027735;28;20211;-65
2023/07/15 00:43:55;;;;;;;21.07;5.10;;;28.80;48.40;;;;;;5028773;28;20255;-66
2023/07/15 00:46:55;;;;;;;19.27;4.70;;;28.80;48.40;;;;;;5028066;28;20306;-70
2023/07/15 00:49:24;;;;;;;20.47;5.10;;;28.80;48.40;;;;;;5033093;28;20204;-71
2023/07/15 00:52:04;;;;;;;35.43;5.97;;;28.80;48.40;;;;;;5045388;28;21102;-72
2023/07/15 00:54:34;;;;;;;44.27;6.87;;;28.80;48.40;;;;;;5038267;28;20830;-71
2023/07/15 00:57:02;;;;;;;32.53;6.03;;;28.80;48.40;;;;;;5036079;28;20708;-69
2023/07/15 00:59:30;;;;;;;26.27;5.27;;;28.80;48.40;;;;;;5027546;28;20211;-71
2023/07/15 01:01:59;;;;;;;33.00;5.93;;;28.80;48.40;;;;;;5038551;28;20640;-71
2023/07/15 01:04:26;;;;;;;30.17;5.60;;;28.70;48.40;;;;;;5047014;28;20200;-72
2023/07/15 01:06:54;;;;;;;39.83;6.63;;;28.70;48.40;;;;;;5046974;28;20223;-72
2023/07/15 01:09:21;;;;;;;30.03;5.80;;;28.70;48.40;;;;;;5045888;28;20196;-70
2023/07/15 01:11:48;;;;;;;22.03;4.93;;;28.70;48.40;;;;;;5040053;28;20228;-71
2023/07/15 01:14:15;;;;;;;24.93;5.63;;;28.70;48.40;;;;;;5047047;28;20219;-73
2023/07/15 01:16:42;;;;;;;28.80;5.67;;;28.70;48.40;;;;;;5047851;28;20197;-70
2023/07/15 01:19:10;;;;;;;31.00;5.83;;;28.70;48.40;;;;;;5046634;28;20274;-66
2023/07/15 01:21:37;;;;;;;23.83;5.10;;;28.70;48.50;;;;;;5038631;28;20207;-66
2023/07/15 01:24:07;;;;;;;30.20;5.90;;;28.70;48.50;;;;;;5038849;28;20199;-66
2023/07/15 01:26:34;;;;;;;26.80;5.43;;;28.70;48.50;;;;;;5032678;28;20575;-66
2023/07/15 01:29:01;;;;;;;28.83;6.30;;;28.70;48.60;;;;;;5045993;28;20594;-67
2023/07/15 01:31:30;;;;;;;31.87;5.90;;;28.70;48.60;;;;;;5039141;28;20228;-67
2023/07/15 01:33:57;;;;;;;30.27;5.57;;;28.70;48.60;;;;;;5031839;28;20676;-71
2023/07/15 01:36:24;;;;;;;28.47;5.57;;;28.70;48.60;;;;;;5030269;28;20664;-67
2023/07/15 01:38:52;;;;;;;43.10;6.83;;;28.70;48.70;;;;;;5051190;28;20185;-68
2023/07/15 01:41:20;;;;;;;35.97;6.10;;;28.70;48.70;;;;;;5052152;28;20207;-68
2023/07/15 01:43:47;;;;;;;24.53;5.27;;;28.70;48.70;;;;;;5052407;28;20221;-68
2023/07/15 01:46:13;;;;;;;25.77;5.13;;;28.70;48.70;;;;;;5052180;28;20185;-67
2023/07/15 01:48:40;;;;;;;28.13;5.60;;;28.70;48.80;;;;;;5051408;28;20207;-67
2023/07/15 01:51:07;;;;;;;50.83;7.53;;;28.70;48.70;;;;;;5049358;28;20232;-71
2023/07/15 01:53:34;;;;;;;27.47;5.60;;;28.70;48.80;;;;;;5048118;28;20196;-68
2023/07/15 01:56:01;;;;;;;24.13;4.87;;;28.60;48.70;;;;;;5051611;28;20627;-68
2023/07/15 01:58:29;;;;;;;23.03;4.80;;;28.70;48.80;;;;;;5051946;28;20196;-69
2023/07/15 02:00:56;;;;;;;31.90;5.83;;;28.60;48.70;;;;;;5051717;28;20204;-68
2023/07/15 02:03:23;;;;;;;37.77;6.63;;;28.70;48.80;;;;;;5043755;28;20208;-69
2023/07/15 02:05:51;;;;;;;27.63;5.23;;;28.70;48.80;;;;;;5049860;28;20212;-69
2023/07/15 02:08:18;;;;;;;28.97;5.63;;;28.70;48.80;;;;;;5051710;28;20242;-68
2023/07/15 02:10:48;;;;;;;26.47;5.43;;;28.60;48.80;;;;;;5047848;28;20983;-69
2023/07/15 02:13:15;;;;;;;24.83;5.10;;;28.70;48.90;;;;;;5036512;28;20633;-67
2023/07/15 02:15:43;;;;;;;37.43;6.30;;;28.60;48.90;;;;;;5046118;28;20188;-68
2023/07/15 02:18:10;;;;;;;15.80;4.47;;;28.60;48.80;;;;;;5051791;28;20207;-67
2023/07/15 02:20:38;;;;;;;24.47;5.10;;;28.60;49.10;;;;;;5051344;28;20211;-67
2023/07/15 02:23:04;;;;;;;27.33;5.13;;;28.60;48.90;;;;;;5042085;28;20196;-72
2023/07/15 02:25:32;;;;;;;23.77;4.90;;;28.60;48.90;;;;;;5058085;28;20662;-68
2023/07/15 02:27:59;;;;;;;29.47;5.40;;;28.60;48.90;;;;;;5043997;28;20549;-69
2023/07/15 02:30:26;;;;;;;31.40;5.80;;;28.60;48.90;;;;;;5044269;28;20220;-71
2023/07/15 02:32:54;;;;;;;30.93;5.67;;;28.60;48.90;;;;;;5038014;28;20311;-68
2023/07/15 02:35:22;;;;;;;37.23;6.13;;;28.60;48.90;;;;;;5038677;28;20655;-67
2023/07/15 02:37:49;;;;;;;23.83;5.17;;;28.60;48.90;;;;;;5050461;28;20941;-71
2023/07/15 02:40:17;;;;;;;23.30;5.23;;;28.60;49.00;;;;;;5051767;28;20204;-68
2023/07/15 02:42:44;;;;;;;24.43;5.23;;;28.60;49.30;;;;;;5037683;28;20204;-71
2023/07/15 02:45:12;;;;;;;32.80;5.70;;;28.60;49.00;;;;;;5049142;28;20200;-70
2023/07/15 02:47:39;;;;;;;20.50;4.73;;;28.50;48.90;;;;;;5048678;28;20207;-70
2023/07/15 02:50:09;;;;;;;26.67;5.50;;;28.60;49.00;;;;;;5049968;28;20204;-70
2023/07/15 02:52:38;;;;;;;46.23;6.97;;;28.60;49.00;;;;;;5048006;28;20203;-70
2023/07/15 02:55:06;;;;;;;39.23;6.40;;;28.50;49.60;;;;;;5036634;28;20204;-72
2023/07/15 02:57:34;;;;;;;25.33;5.27;;;28.50;49.00;;;;;;5050773;28;20566;-70
2023/07/15 03:00:01;;;;;;;27.33;5.53;;;28.50;49.00;;;;;;5039757;28;20205;-70
2023/07/15 03:02:29;;;;;;;27.03;5.43;;;28.50;49.00;;;;;;5046044;28;20294;-70
2023/07/15 03:04:56;;;;;;;35.13;6.17;;;28.50;49.00;;;;;;5047408;28;20192;-72
2023/07/15 03:07:24;;;;;;;27.37;5.37;;;28.50;49.00;;;;;;5049455;28;20680;-68
2023/07/15 03:09:51;;;;;;;24.20;4.80;;;28.50;49.00;;;;;;5049570;28;20208;-70
2023/07/15 03:12:18;;;;;;;31.23;5.90;;;28.50;49.10;;;;;;5037733;28;20693;-69
2023/07/15 03:14:45;;;;;;;24.43;5.20;;;28.50;49.10;;;;;;5045824;28;20293;-68
2023/07/15 03:17:14;;;;;;;28.53;5.40;;;28.50;49.10;;;;;;5042476;28;20193;-72
2023/07/15 03:19:40;;;;;;;45.13;6.60;;;28.50;49.70;;;;;;5037656;28;20211;-71
2023/07/15 03:22:07;;;;;;;27.63;5.33;;;28.50;49.10;;;;;;5042828;28;20212;-72
2023/07/15 03:24:36;;;;;;;32.93;5.90;;;28.50;49.10;;;;;;5047404;28;20196;-71
2023/07/15 03:27:03;;;;;;;43.20;6.83;;;28.50;49.10;;;;;;5030653;28;20207;-72
2023/07/15 03:29:30;;;;;;;23.40;4.70;;;28.50;49.10;;;;;;5030359;28;20201;-70
2023/07/15 03:31:57;;;;;;;63.63;8.43;;;28.50;49.10;;;;;;5046084;28;20231;-71
2023/07/15 03:34:24;;;;;;;20.50;4.83;;;28.50;49.20;;;;;;5037851;28;20204;-71
2023/07/15 03:36:51;;;;;;;26.33;5.20;;;28.50;49.80;;;;;;5039670;28;20619;-71
2023/07/15 03:39:19;;;;;;;22.00;4.67;;;28.50;49.20;;;;;;5043005;28;20196;-68
2023/07/15 03:41:47;;;;;;;26.17;5.17;;;28.50;49.20;;;;;;5048703;28;20280;-67
2023/07/15 03:44:14;;;;;;;25.30;5.10;;;28.50;49.20;;;;;;5048282;28;20668;-67
2023/07/15 03:46:41;;;;;;;24.00;5.03;;;28.40;49.10;;;;;;5049610;28;20204;-68
2023/07/15 03:49:08;;;;;;;26.23;5.03;;;28.40;49.10;;;;;;5047487;28;20207;-68
2023/07/15 03:51:35;;;;;;;26.50;5.23;;;28.40;49.10;;;;;;5045636;28;20228;-67
2023/07/15 03:54:03;;;;;;;18.67;4.50;;;28.40;49.20;;;;;;5045177;28;20669;-68
2023/07/15 03:56:30;;;;;;;26.07;5.20;;;28.40;49.20;;;;;;5029916;28;20193;-67
2023/07/15 03:58:59;;;;;;;37.03;6.13;;;28.40;49.20;;;;;;5029702;28;20203;-68
2023/07/15 04:01:26;;;;;;;24.37;4.97;;;28.40;49.20;;;;;;5048136;28;20204;-67
2023/07/15 04:03:53;;;;;;;27.00;5.20;;;28.40;49.20;;;;;;5048785;28;20200;-68
2023/07/15 04:06:20;;;;;;;26.83;5.17;;;28.40;49.20;;;;;;5048348;28;20752;-68
2023/07/15 04:08:49;;;;;;;27.23;5.17;;;28.40;49.20;;;;;;5047844;28;20212;-69
2023/07/15 04:11:17;;;;;;;45.87;7.00;;;28.40;49.30;;;;;;5029966;28;20247;-68
2023/07/15 04:13:44;;;;;;;19.60;4.43;;;28.40;49.30;;;;;;5048980;28;20672;-67
2023/07/15 04:16:12;;;;;;;28.63;5.43;;;28.40;49.30;;;;;;5048732;28;20208;-72
2023/07/15 04:18:39;;;;;;;25.13;5.00;;;28.30;49.20;;;;;;5047757;28;20228;-68
2023/07/15 04:21:06;;;;;;;24.70;5.13;;;28.40;49.30;;;;;;5046640;28;20273;-67
2023/07/15 04:23:33;;;;;;;43.77;6.73;;;28.40;49.30;;;;;;5048011;28;20207;-67
2023/07/15 04:26:00;;;;;;;42.27;6.63;;;28.40;49.30;;;;;;5042750;28;20200;-71
2023/07/15 04:28:27;;;;;;;40.20;6.27;;;28.40;49.30;;;;;;5036974;28;20247;-71
2023/07/15 04:30:54;;;;;;;47.70;7.00;;;28.30;49.30;;;;;;5032881;28;20226;-69
2023/07/15 04:33:23;;;;;;;37.50;6.27;;;28.30;49.30;;;;;;5033319;28;20208;-67
2023/07/15 04:35:50;;;;;;;27.33;5.03;;;28.30;49.30;;;;;;5041451;28;20200;-67
2023/07/15 04:38:16;;;;;;;22.33;4.80;;;28.30;49.30;;;;;;5047870;28;20215;-68
2023/07/15 04:40:43;;;;;;;32.63;6.07;;;28.30;49.30;;;;;;5039101;28;20552;-68
2023/07/15 04:43:10;;;;;;;20.60;4.70;;;28.30;49.30;;;;;;5034488;28;20189;-69
2023/07/15 04:45:37;;;;;;;25.90;5.00;;;28.30;49.30;;;;;;5046895;28;20196;-68
2023/07/15 04:48:05;;;;;;;25.43;5.13;;;28.30;49.30;;;;;;5046118;28;20687;-70
2023/07/15 04:50:34;;;;;;;20.63;4.77;;;28.30;49.30;;;;;;5043196;28;20569;-69
2023/07/15 04:53:01;;;;;;;26.70;4.93;;;28.30;49.30;;;;;;5046162;28;20703;-68
2023/07/15 04:55:28;;;;;;;42.30;6.53;;;28.30;49.30;;;;;;5038733;28;20204;-66
2023/07/15 04:57:54;;;;;;;46.13;6.70;;;28.30;49.30;;;;;;5038169;28;20211;-66
2023/07/15 05:00:21;;;;;;;31.47;5.43;;;28.30;49.30;;;;;;5030846;28;20205;-71
2023/07/15 05:02:49;;;;;;;33.30;5.40;;;28.20;49.30;;;;;;5041776;28;20208;-67
2023/07/15 05:05:16;;;;;;;26.10;5.30;;;28.30;49.40;;;;;;5046539;28;20724;-67
2023/07/15 05:07:44;;;;;;;18.07;4.50;;;28.30;49.40;;;;;;5037244;28;20219;-67
2023/07/15 05:10:12;;;;;;;37.47;6.13;;;28.30;49.40;;;;;;5047126;28;20203;-72
2023/07/15 05:12:40;;;;;;;30.30;5.60;;;28.30;49.40;;;;;;5035314;28;21002;-68
2023/07/15 05:15:09;;;;;;;51.23;7.53;;;28.20;49.40;;;;;;5045992;28;20192;-71
2023/07/15 05:17:37;;;;;;;27.97;5.13;;;28.30;49.50;;;;;;5033228;28;20200;-71
2023/07/15 05:20:04;;;;;;;34.23;5.80;;;28.30;49.70;;;;;;5046670;28;20200;-72
2023/07/15 05:22:31;;;;;;;33.67;6.07;;;28.30;49.60;;;;;;5035154;28;20232;-69
2023/07/15 05:24:59;;;;;;;20.40;4.63;;;28.30;49.50;;;;;;5030825;28;20201;-72
2023/07/15 05:27:26;;;;;;;44.33;7.00;;;28.30;49.50;;;;;;5031980;28;20201;-75
2023/07/15 05:29:53;;;;;;;26.97;5.13;;;28.30;49.50;;;;;;5043081;28;20207;-73
2023/07/15 05:32:20;;;;;;;28.00;5.17;;;28.20;49.50;;;;;;5039943;28;20239;-70
2023/07/15 05:34:47;;;;;;;21.30;4.93;;;28.20;49.50;;;;;;5048081;28;20215;-72
2023/07/15 05:37:13;;;;;;;34.33;5.90;;;28.20;49.50;;;;;;5047400;28;20220;-71
2023/07/15 05:39:40;;;;;;;32.33;5.93;;;28.20;49.50;;;;;;5029142;28;20607;-73
2023/07/15 05:42:09;;;;;;;33.30;5.93;;;28.20;49.60;;;;;;5035744;28;20200;-69
2023/07/15 05:44:35;;;;;;;35.50;5.87;;;28.20;49.60;;;;;;5053372;28;20206;-71
2023/07/15 05:47:02;;;;;;;28.27;5.40;;;28.20;49.60;;;;;;5042940;28;20565;-68
2023/07/15 05:49:29;;;;;;;26.37;5.20;;;28.20;49.60;;;;;;5035371;28;20211;-68
2023/07/15 05:51:56;;;;;;;29.30;5.63;;;28.20;49.60;;;;;;5047129;28;20226;-72
2023/07/15 05:54:23;;;;;;;28.97;5.57;;;28.20;49.90;;;;;;5044364;28;20207;-70
2023/07/15 05:56:50;;;;;;;33.57;5.93;;;28.20;49.80;;;;;;5033340;28;20205;-68
2023/07/15 05:59:18;;;;;;;43.77;6.73;;;28.20;49.70;;;;;;5027346;28;20201;-70
2023/07/15 06:01:45;;;;;;;26.53;5.50;;;28.20;49.60;;;;;;5044164;28;20374;-69
2023/07/15 06:04:12;;;;;;;34.30;6.03;;;28.20;49.60;;;;;;5037473;28;20883;-66
2023/07/15 06:06:39;;;;;;;23.13;4.90;;;28.10;49.60;;;;;;5035942;28;20217;-68
2023/07/15 06:09:06;;;;;;;39.97;6.53;;;28.10;49.60;;;;;;5028547;28;20211;-72
2023/07/15 06:11:33;;;;;;;49.80;7.23;;;28.10;49.80;;;;;;5035803;28;20846;-68
2023/07/15 06:14:03;;;;;;;28.10;5.57;;;28.10;49.80;;;;;;5036624;28;20211;-70
2023/07/15 06:16:31;;;;;;;34.77;6.00;;;28.10;49.70;;;;;;5043064;28;20206;-68
2023/07/15 06:18:58;;;;;;;23.17;5.17;;;28.00;49.70;;;;;;5051771;28;20687;-69
2023/07/15 06:21:25;;;;;;;27.30;5.33;;;28.00;49.60;;;;;;5056137;28;20570;-70
2023/07/15 06:23:52;;;;;;;25.77;5.30;;;28.00;49.70;;;;;;5033735;28;20228;-69
2023/07/15 06:26:20;;;;;;;36.87;6.90;;;28.00;49.60;;;;;;5031031;28;20756;-70
2023/07/15 06:28:47;;;;;;;24.90;5.23;;;27.90;49.80;;;;;;5031666;28;20216;-72
2023/07/15 06:31:14;;;;;;;42.27;6.57;;;27.90;49.70;;;;;;5045054;28;20230;-73
2023/07/15 06:33:44;;;;;;;30.20;5.87;;;27.80;49.80;;;;;;5044137;28;20203;-68
2023/07/15 06:36:11;;;;;;;20.60;4.97;;;27.80;49.80;;;;;;5047748;28;20205;-70
2023/07/15 06:38:38;;;;;;;34.63;6.40;;;27.70;49.90;;;;;;5048129;28;20667;-67
2023/07/15 06:41:05;;;;;;;47.70;7.23;;;27.70;50.00;;;;;;5036312;28;20270;-68
2023/07/15 06:43:32;;;;;;;48.90;7.57;;;27.60;50.00;;;;;;5045273;28;20200;-71
2023/07/15 06:45:59;;;;;;;31.60;6.50;;;27.50;50.00;;;;;;5043788;28;20199;-70
2023/07/15 06:48:26;;;;;;;53.00;8.00;;;27.50;50.00;;;;;;5032493;28;20208;-62
2023/07/15 06:50:54;;;;;;;45.60;7.37;;;27.40;49.90;;;;;;5038435;28;20704;-62
2023/07/15 06:53:21;;;;;;;28.53;6.13;;;27.40;50.00;;;;;;5032196;28;20696;-63
2023/07/15 06:55:48;;;;;;;29.80;6.13;;;27.30;49.90;;;;;;5039292;28;20189;-66
2023/07/15 06:58:17;;;;;;;40.63;6.67;;;27.30;49.90;;;;;;5041751;28;20209;-64
2023/07/15 07:00:43;;;;;;;28.63;5.57;;;27.20;49.90;;;;;;5051436;28;20201;-63
2023/07/15 07:03:10;;;;;;;28.93;6.00;;;27.20;49.90;;;;;;5049078;28;20204;-64
2023/07/15 07:05:37;;;;;;;33.53;6.40;;;27.20;50.00;;;;;;5048020;28;20200;-63
2023/07/15 07:08:06;;;;;;;43.70;7.40;;;27.20;50.00;;;;;;5034666;28;20680;-62
2023/07/15 07:10:33;;;;;;;29.50;5.87;;;27.20;50.00;;;;;;5037652;28;20227;-63
2023/07/15 07:13:00;;;;;;;33.33;6.20;;;27.20;50.00;;;;;;5042485;28;20229;-62
2023/07/15 07:15:28;;;;;;;54.77;8.03;;;27.20;50.00;;;;;;5040430;28;20196;-69
2023/07/15 07:17:55;;;;;;;45.53;7.57;;;27.20;50.10;;;;;;5037435;28;20204;-70
2023/07/15 07:20:22;;;;;;;35.30;6.10;;;27.20;50.10;;;;;;5045703;28;20291;-74
2023/07/15 07:22:49;;;;;;;42.53;7.10;;;27.20;50.10;;;;;;5048498;28;20204;-74
2023/07/15 07:25:17;;;;;;;42.43;6.67;;;27.20;50.10;;;;;;5044552;28;20196;-67
2023/07/15 07:27:44;;;;;;;27.33;5.37;;;27.20;50.10;;;;;;5038306;28;20208;-66
2023/07/15 07:30:11;;;;;;;29.40;5.83;;;27.10;50.00;;;;;;5044681;28;20192;-67
2023/07/15 07:32:38;;;;;;;28.93;5.80;;;27.10;50.10;;;;;;5046169;28;20722;-68
2023/07/15 07:35:06;;;;;;;36.23;6.63;;;27.00;50.00;;;;;;5048493;28;20214;-68
2023/07/15 07:37:33;;;;;;;40.23;6.40;;;27.00;50.10;;;;;;5048927;28;20564;-67
2023/07/15 07:40:00;;;;;;;28.10;5.87;;;27.00;50.20;;;;;;5049096;28;20196;-72
2023/07/15 07:42:28;;;;;;;31.60;5.97;;;26.90;50.20;;;;;;5044596;28;20208;-72
2023/07/15 07:44:55;;;;;;;42.40;6.80;;;26.90;50.30;;;;;;5047294;28;20200;-68
2023/07/15 07:47:22;;;;;;;55.43;8.00;;;26.90;50.30;;;;;;5043103;28;20208;-69
2023/07/15 07:49:49;;;;;;;31.63;5.97;;;26.90;50.50;;;;;;5044940;28;20290;-68
2023/07/15 07:52:17;;;;;;;36.87;6.67;;;26.90;50.60;;;;;;5043279;28;20294;-68
2023/07/15 07:54:44;;;;;;;40.37;7.07;;;26.80;50.60;;;;;;5046164;28;20204;-67
2023/07/15 07:57:14;;;;;;;44.00;7.27;;;26.90;50.80;;;;;;5048753;28;20208;-73
2023/07/15 07:59:42;;;;;;;28.60;6.00;;;26.80;50.70;;;;;;5047693;28;20196;-68
2023/07/15 08:02:09;;;;;;;42.23;7.30;;;26.80;51.30;;;;;;5048570;28;20212;-72
2023/07/15 08:04:35;;;;;;;23.10;5.33;;;26.80;50.70;;;;;;5036465;28;20204;-75
2023/07/15 08:07:04;;;;;;;55.40;7.73;;;26.80;50.70;;;;;;5033746;28;20203;-67
2023/07/15 08:09:31;;;;;;;36.77;6.40;;;26.80;50.70;;;;;;5042205;28;20208;-71
2023/07/15 08:11:59;;;;;;;27.73;5.97;;;26.70;50.60;;;;;;5043868;28;20208;-65
2023/07/15 08:14:26;;;;;;;26.53;5.30;;;26.70;50.90;;;;;;5047062;28;20208;-66
2023/07/15 08:16:54;;;;;;;34.17;6.33;;;26.70;51.00;;;;;;5041080;28;20207;-68
2023/07/15 08:19:21;;;;;;;29.30;5.63;;;26.70;51.10;;;;;;5045922;28;20200;-69
2023/07/15 08:21:48;;;;;;;36.53;6.37;;;26.70;51.10;;;;;;5041931;28;20200;-75
2023/07/15 08:24:14;;;;;;;35.37;6.10;;;26.70;51.20;;;;;;5043999;28;20211;-68
2023/07/15 08:26:41;;;;;;;46.50;7.03;;;26.70;51.20;;;;;;5038146;28;20201;-69
2023/07/15 08:29:08;;;;;;;29.93;5.70;;;26.70;51.30;;;;;;5058734;28;20287;-68
2023/07/15 08:31:35;;;;;;;41.85;7.00;;;26.70;51.50;;;;;;5038070;28;20934;-70
2023/07/15 08:34:04;;;;;;;32.03;6.33;;;26.60;51.70;;;;;;5047344;28;20228;-73
2023/07/15 08:36:31;;;;;;;48.83;8.00;;;26.70;51.80;;;;;;5047522;28;20218;-73
2023/07/15 08:38:57;;;;;;;30.87;6.20;;;26.70;51.80;;;;;;5028592;28;20201;-72
2023/07/15 08:41:25;;;;;;;43.33;7.10;;;26.70;51.80;;;;;;5031827;28;20672;-73
2023/07/15 08:43:52;;;;;;;31.20;6.37;;;26.70;51.70;;;;;;5046444;28;20204;-69
2023/07/15 08:46:26;;;;;;;25.13;5.77;;;26.70;51.80;;;;;;5043873;28;20923;-70
2023/07/15 08:48:53;;;;;;;32.77;6.50;;;26.70;51.80;;;;;;5047222;28;20726;-73
2023/07/15 08:51:23;;;;;;;45.87;7.53;;;26.70;52.00;;;;;;5046085;28;20209;-72
2023/07/15 08:53:52;;;;;;;49.17;7.47;;;26.70;51.80;;;;;;5043743;28;20216;-72
2023/07/15 08:56:19;;;;;;;29.50;6.27;;;26.70;51.90;;;;;;5046861;28;20265;-76
2023/07/15 08:58:46;;;;;;;32.90;6.13;;;26.70;51.90;;;;;;5042065;28;20567;-75
2023/07/15 09:01:13;;;;;;;37.47;6.73;;;26.60;52.00;;;;;;5037254;28;20200;-78
2023/07/15 09:03:40;;;;;;;33.90;6.83;;;26.70;52.10;;;;;;5038851;28;20208;-70
2023/07/15 09:06:08;;;;;;;30.93;5.93;;;26.60;52.00;;;;;;5045287;28;20204;-71
2023/07/15 09:08:36;;;;;;;29.63;6.22;;;26.60;52.00;;;;;;5040435;28;20445;-75
2023/07/15 09:11:05;;;;;;;37.43;6.77;;;26.60;52.70;;;;;;5036709;28;20203;-74
2023/07/15 09:13:34;;;;;;;23.57;6.13;;;26.60;52.40;;;;;;5046500;28;20216;-69
2023/07/15 09:16:03;;;;;;;54.33;15.90;;;26.60;52.40;;;;;;5045634;28;20206;-77
2023/07/15 09:18:30;;;;;;;49.47;17.80;;;26.60;52.20;;;;;;5046661;28;20215;-75
2023/07/15 09:21:09;;;;;;;41.83;9.70;;;26.60;52.10;;;;;;5042935;28;20200;-78
2023/07/15 09:23:38;;;;;;;27.63;6.80;;;26.60;52.10;;;;;;5047243;28;20231;-74
2023/07/15 09:26:06;;;;;;;32.90;7.77;;;26.60;52.00;;;;;;5046448;28;20212;-76
2023/07/15 09:28:33;;;;;;;27.83;6.13;;;26.60;52.00;;;;;;5034719;28;20238;-77
2023/07/15 09:31:00;;;;;;;58.07;8.37;;;26.50;52.00;;;;;;5043670;28;20896;-74
2023/07/15 09:33:29;;;;;;;45.97;7.27;;;26.60;52.10;;;;;;5037736;28;20213;-75
2023/07/15 09:35:56;;;;;;;34.37;6.30;;;26.60;52.10;;;;;;5042985;28;20223;-74
2023/07/15 09:38:24;;;;;;;27.20;5.73;;;26.60;52.20;;;;;;5034514;28;20236;-70
2023/07/15 09:40:52;;;;;;;26.53;5.03;;;26.60;52.10;;;;;;5047752;28;20264;-70
2023/07/15 09:43:20;;;;;;;32.93;6.13;;;26.60;52.00;;;;;;5067549;28;20209;-74
2023/07/15 09:45:47;;;;;;;36.37;6.30;;;26.70;52.00;;;;;;5037819;28;20204;-75
2023/07/15 09:48:16;;;;;;;30.73;5.67;;;26.60;51.70;;;;;;5031567;28;20200;-73
2023/07/15 09:50:43;;;;;;;30.93;5.83;;;26.70;51.80;;;;;;5035237;28;20201;-69
2023/07/15 09:53:11;;;;;;;44.00;6.90;;;26.70;51.80;;;;;;5030591;28;20231;-71
2023/07/15 09:55:39;;;;;;;31.33;5.73;;;26.70;51.80;;;;;;5047598;28;20200;-69
2023/07/15 09:58:15;;;;;;;36.47;6.27;;;26.70;51.80;;;;;;5049096;28;20227;-69
2023/07/15 10:00:46;;;;;;;26.13;5.40;;;26.70;51.80;;;;;;5038622;28;20207;-67
2023/07/15 10:03:23;;;;;;;28.17;5.70;;;26.80;51.80;;;;;;5050095;28;20295;-76
2023/07/15 10:05:51;;;;;;;29.60;5.77;;;26.80;51.70;;;;;;5050661;28;20196;-72
2023/07/15 10:08:18;;;;;;;34.50;6.10;;;26.80;51.60;;;;;;5048513;28;20680;-76
2023/07/15 10:10:46;;;;;;;31.70;5.60;;;26.80;52.30;;;;;;5041990;28;20648;-73
2023/07/15 10:13:14;;;;;;;30.60;5.97;;;26.80;51.80;;;;;;5049551;28;20224;-74
2023/07/15 10:15:42;;;;;;;26.97;5.47;;;26.90;51.90;;;;;;5050449;28;20200;-75
2023/07/15 10:18:14;;;;;;;28.37;5.53;;;26.90;51.90;;;;;;5047626;28;20199;-75
2023/07/15 10:20:47;;;;;;;20.77;4.97;;;27.00;52.00;;;;;;5045162;28;20227;-74
2023/07/15 10:23:17;;;;;;;42.53;7.20;;;27.00;52.00;;;;;;5048081;28;20291;-76
2023/07/15 10:25:44;;;;;;;26.80;5.70;;;27.10;51.70;;;;;;5038988;28;20204;-74
2023/07/15 10:28:13;;;;;;;34.23;6.43;;;27.20;51.70;;;;;;5035252;28;20228;-75
2023/07/15 10:31:01;;;;;;;29.70;5.50;;;27.30;51.60;;;;;;5047237;28;20196;-74
2023/07/15 10:33:27;;;;;;;31.80;6.40;;;27.30;51.60;;;;;;5049110;28;20684;-78
2023/07/15 10:35:54;;;;;;;31.50;5.77;;;27.50;51.50;;;;;;5051552;28;20184;-75
2023/07/15 10:38:26;;;;;;;29.63;5.63;;;27.50;51.40;;;;;;5045808;28;20214;-77
2023/07/15 10:40:55;;;;;;;42.17;6.80;;;27.60;51.40;;;;;;5031203;28;20679;-74
2023/07/15 10:43:35;;;;;;;33.53;6.00;;;27.70;52.10;;;;;;5036777;28;20206;-76
2023/07/15 10:46:04;;;;;;;39.10;6.63;;;27.80;51.50;;;;;;5045883;28;20200;-77
2023/07/15 10:48:32;;;;;;;33.43;5.87;;;27.90;51.40;;;;;;5035926;28;20215;-64
2023/07/15 10:51:05;;;;;;;32.37;6.17;;;28.10;51.30;;;;;;5050049;28;20196;-73
2023/07/15 10:53:33;;;;;;;28.30;5.67;;;28.20;51.10;;;;;;5041118;28;20315;-65
2023/07/15 10:56:02;;;;;;;30.03;5.97;;;28.30;51.00;;;;;;5043781;28;20211;-65
2023/07/15 10:58:32;;;;;;;35.60;6.10;;;28.50;51.00;;;;;;5040721;28;20562;-71
2023/07/15 11:01:00;;;;;;;49.13;7.50;;;28.60;51.00;;;;;;5036241;28;20322;-71
2023/07/15 11:03:28;;;;;;;49.13;7.37;;;28.80;51.20;;;;;;5041366;28;20282;-71
2023/07/15 11:05:57;;;;;;;24.97;5.00;;;28.90;51.10;;;;;;5046421;28;20193;-75
2023/07/15 11:08:24;;;;;;;26.80;5.33;;;29.00;50.90;;;;;;5049208;28;20195;-76
2023/07/15 11:10:57;;;;;;;36.83;6.87;;;29.20;50.20;;;;;;5034921;28;20212;-70
2023/07/15 11:13:24;;;;;;;32.57;6.83;;;29.30;50.10;;;;;;5042092;28;20220;-76
2023/07/15 11:15:53;;;;;;;53.53;8.73;;;29.50;50.00;;;;;;5044291;28;20196;-74
2023/07/15 11:18:21;;;;;;;169.90;46.07;;;29.70;49.90;;;;;;5035039;28;20208;-71
2023/07/15 11:20:50;;;;;;;106.47;30.33;;;29.80;49.70;;;;;;5045566;28;20242;-77
2023/07/15 11:23:17;;;;;;;71.90;20.87;;;30.00;49.50;;;;;;5048956;28;20215;-77
2023/07/15 11:25:45;;;;;;;59.30;17.40;;;30.10;49.30;;;;;;5049553;28;20202;-70
2023/07/15 11:28:12;;;;;;;59.00;16.00;;;30.30;49.40;;;;;;5035847;28;20672;-76
2023/07/15 11:30:41;;;;;;;55.57;14.60;;;30.40;49.50;;;;;;5045849;28;20204;-80
2023/07/15 11:33:10;;;;;;;41.37;11.47;;;30.40;49.50;;;;;;5047387;28;20567;-74
2023/07/15 11:35:41;;;;;;;42.57;9.13;;;30.50;49.50;;;;;;5036433;28;20200;-82
2023/07/15 11:38:12;;;;;;;34.57;8.07;;;30.60;49.40;;;;;;5029464;28;20213;-82
2023/07/15 11:40:50;;;;;;;35.80;7.60;;;30.70;49.20;;;;;;5046671;28;20200;-72
2023/07/15 11:43:18;;;;;;;27.87;6.23;;;30.80;48.80;;;;;;5049144;28;20208;-78
2023/07/15 11:45:45;;;;;;;27.77;5.67;;;30.80;48.90;;;;;;5049760;28;20188;-72
2023/07/15 11:48:19;;;;;;;33.37;6.07;;;30.80;48.70;;;;;;5042921;28;20283;-72
2023/07/15 11:50:46;;;;;;;33.53;6.30;;;30.80;48.40;;;;;;5029621;28;20240;-81
2023/07/15 11:53:24;;;;;;;29.70;6.50;;;30.90;48.60;;;;;;5041443;28;20327;-71
2023/07/15 11:55:51;;;;;;;32.83;5.90;;;30.80;48.40;;;;;;5043158;28;20197;-78
2023/07/15 11:58:42;;;;;;;25.37;5.77;;;30.80;48.50;;;;;;5029229;28;20672;-85
2023/07/15 12:01:13;;;;;;;30.47;6.00;;;30.80;48.40;;;;;;5040026;28;20653;-77
2023/07/15 12:03:42;;;;;;;29.33;5.93;;;30.80;48.70;;;;;;5049661;28;20192;-74
2023/07/15 12:06:16;;;;;;;27.33;5.83;;;30.80;48.70;;;;;;5049440;28;20201;-75
2023/07/15 12:08:43;;;;;;;37.00;6.40;;;30.80;48.70;;;;;;5045826;28;20214;-80
2023/07/15 12:11:17;;;;;;;21.03;5.00;;;30.70;48.70;;;;;;5045814;28;20229;-69
2023/07/15 12:13:44;;;;;;;26.33;5.80;;;30.70;48.60;;;;;;5034801;28;20803;-73
2023/07/15 12:16:11;;;;;;;24.90;5.67;;;30.70;48.70;;;;;;5036678;28;20205;-72
2023/07/15 12:18:38;;;;;;;27.83;5.73;;;30.70;48.60;;;;;;5044539;28;20207;-74
2023/07/15 12:21:06;;;;;;;27.70;5.43;;;30.70;48.50;;;;;;5046549;28;20231;-73
2023/07/15 12:23:33;;;;;;;20.00;4.72;;;30.70;48.40;;;;;;5046649;28;20246;-78
2023/07/15 12:26:00;;;;;;;34.10;6.13;;;30.60;48.40;;;;;;5043657;28;20211;-75
2023/07/15 12:28:26;;;;;;;32.07;5.73;;;30.60;48.40;;;;;;5039294;28;20207;-74
2023/07/15 12:30:53;;;;;;;64.30;9.10;;;30.60;48.40;;;;;;5030710;28;20196;-79
2023/07/15 12:33:21;;;;;;;24.20;5.07;;;30.60;48.40;;;;;;5046174;28;20298;-85
2023/07/15 12:35:48;;;;;;;41.27;6.77;;;30.50;48.40;;;;;;5038984;28;20204;-75
2023/07/15 12:38:16;;;;;;;26.13;5.33;;;30.50;48.40;;;;;;5046289;28;20213;-76
2023/07/15 12:40:43;;;;;;;29.33;5.63;;;30.50;48.50;;;;;;5039882;28;20201;-85